Time;durP1;ratioP1;P1;durP2;ratioP2;P2;SDS_P1;SDS_P2;PMS_P1;PMS_P2;Temp;Humidity;BMP_temperature;BMP_pressure;BME280_temperature;BME280_humidity;BME280_pressure;Samples;Min_cycle;Max_cycle;Signal;HPM_P1;HPM_P2
2023/06/20 00:01:37;;;;;;;28.52;26.52;;;17.80;99.90;;;;;;5085669;28;20058;-68
2023/06/20 00:04:05;;;;;;;28.05;25.73;;;17.80;99.90;;;;;;5072271;28;20520;-68
2023/06/20 00:06:32;;;;;;;28.67;26.25;;;17.90;99.90;;;;;;5063300;28;20657;-69
2023/06/20 00:08:58;;;;;;;28.55;26.38;;;17.90;99.90;;;;;;5087797;28;20106;-68
2023/06/20 00:11:25;;;;;;;28.38;26.38;;;17.90;99.90;;;;;;5081035;28;20052;-70
2023/06/20 00:13:52;;;;;;;28.40;26.33;;;18.00;99.90;;;;;;5076198;28;20043;-70
2023/06/20 00:16:20;;;;;;;28.08;26.08;;;18.10;99.90;;;;;;5064380;28;20040;-68
2023/06/20 00:18:53;;;;;;;27.90;25.58;;;18.10;99.90;;;;;;5074244;28;20059;-68
2023/06/20 00:21:25;;;;;;;26.58;24.70;;;18.00;99.90;;;;;;5081813;28;20801;-70
2023/06/20 00:23:53;;;;;;;26.58;24.77;;;18.10;99.90;;;;;;5091101;28;20397;-70
2023/06/20 00:26:21;;;;;;;27.10;25.33;;;18.10;99.90;;;;;;5048020;28;20104;-70
2023/06/20 00:28:52;;;;;;;28.02;25.95;;;18.20;99.90;;;;;;5085649;28;20509;-69
2023/06/20 00:31:18;;;;;;;28.52;26.63;;;18.10;99.90;;;;;;5067268;28;20051;-70
2023/06/20 00:33:47;;;;;;;27.15;25.30;;;18.20;99.90;;;;;;5061545;28;20044;-69
2023/06/20 00:36:14;;;;;;;29.13;26.55;;;18.30;99.90;;;;;;5082506;28;20032;-70
2023/06/20 00:38:48;;;;;;;28.15;26.25;;;18.30;99.90;;;;;;5088434;28;20116;-69
2023/06/20 00:41:16;;;;;;;29.20;27.10;;;18.30;99.90;;;;;;5083012;28;20082;-69
2023/06/20 00:43:44;;;;;;;28.15;26.15;;;18.30;99.90;;;;;;5084670;28;20206;-69
2023/06/20 00:46:12;;;;;;;27.55;25.75;;;18.40;99.90;;;;;;5067950;28;20093;-69
2023/06/20 00:48:39;;;;;;;27.92;25.92;;;18.40;99.90;;;;;;5086319;28;20055;-69
2023/06/20 00:51:06;;;;;;;27.67;25.77;;;18.50;99.90;;;;;;5063614;28;20068;-71
2023/06/20 00:53:33;;;;;;;27.40;25.40;;;18.50;99.90;;;;;;5088068;28;20052;-71
2023/06/20 00:56:00;;;;;;;27.52;25.60;;;18.60;99.90;;;;;;5082945;28;20052;-69
2023/06/20 00:58:27;;;;;;;27.30;25.40;;;18.60;99.90;;;;;;5051316;28;20708;-69
2023/06/20 01:00:53;;;;;;;28.25;26.15;;;18.50;99.90;;;;;;5070681;28;20120;-68
2023/06/20 01:03:21;;;;;;;28.15;26.02;;;18.60;99.90;;;;;;5067351;28;20083;-70
2023/06/20 01:06:13;;;;;;;28.73;26.52;;;18.70;99.90;;;;;;5055761;28;20055;-69
2023/06/20 01:08:54;;;;;;;26.75;24.77;;;18.80;99.90;;;;;;5068013;28;20112;-69
2023/06/20 01:11:34;;;;;;;26.88;25.08;;;18.90;99.90;;;;;;5064436;28;20089;-69
2023/06/20 01:14:30;;;;;;;27.63;25.60;;;19.00;99.90;;;;;;5055718;28;20575;-68
2023/06/20 01:17:05;;;;;;;27.33;25.35;;;19.30;99.90;;;;;;5068198;28;20075;-69
2023/06/20 01:19:33;;;;;;;26.38;24.58;;;19.40;99.90;;;;;;5053008;28;20047;-70
2023/06/20 01:22:06;;;;;;;27.20;25.10;;;19.40;99.90;;;;;;5062457;28;20047;-69
2023/06/20 01:24:49;;;;;;;27.48;25.58;;;19.50;99.90;;;;;;5082906;28;20654;-70
2023/06/20 01:27:34;;;;;;;28.80;26.70;;;19.50;99.90;;;;;;5079635;28;20044;-69
2023/06/20 01:30:18;;;;;;;27.85;25.92;;;19.50;99.90;;;;;;5085030;28;20040;-72
2023/06/20 01:32:47;;;;;;;27.17;25.30;;;19.50;99.90;;;;;;5087674;28;20486;-71
2023/06/20 01:35:22;;;;;;;27.40;25.40;;;19.50;99.90;;;;;;5078899;28;20036;-70
2023/06/20 01:37:57;;;;;;;27.88;25.83;;;19.60;99.90;;;;;;5072661;28;20051;-70
2023/06/20 01:40:25;;;;;;;27.88;25.88;;;19.60;99.90;;;;;;5069514;28;20055;-70
2023/06/20 01:42:58;;;;;;;27.70;25.77;;;19.60;99.90;;;;;;5071433;28;20642;-69
2023/06/20 01:45:28;;;;;;;28.67;26.55;;;19.60;99.90;;;;;;5052956;28;20480;-69
2023/06/20 01:48:00;;;;;;;27.70;25.73;;;19.70;99.90;;;;;;5071053;28;20528;-70
2023/06/20 01:50:31;;;;;;;28.33;26.33;;;19.70;99.90;;;;;;5069572;28;20487;-72
2023/06/20 01:53:00;;;;;;;27.58;25.58;;;19.70;99.90;;;;;;5069519;28;20047;-71
2023/06/20 01:55:29;;;;;;;27.67;25.58;;;19.80;99.90;;;;;;5086717;28;20043;-70
2023/06/20 01:57:58;;;;;;;27.98;25.88;;;19.80;99.90;;;;;;5055911;28;20047;-71
2023/06/20 02:00:29;;;;;;;28.55;26.23;;;19.90;99.90;;;;;;5067450;28;20054;-71
2023/06/20 02:02:58;;;;;;;28.00;25.90;;;19.90;99.90;;;;;;5070917;28;20082;-69
2023/06/20 02:05:27;;;;;;;28.77;26.55;;;19.90;99.90;;;;;;5057261;28;20105;-69
2023/06/20 02:07:56;;;;;;;28.63;26.50;;;20.00;99.90;;;;;;5088731;28;20113;-69
2023/06/20 02:10:24;;;;;;;28.90;26.80;;;19.90;99.90;;;;;;5070347;28;20051;-69
2023/06/20 02:12:54;;;;;;;29.10;26.83;;;19.90;99.90;;;;;;5059378;28;20074;-68
2023/06/20 02:15:25;;;;;;;29.38;27.17;;;19.90;99.90;;;;;;5071276;28;20055;-68
2023/06/20 02:17:53;;;;;;;29.83;27.38;;;20.00;99.90;;;;;;5113506;28;20047;-68
2023/06/20 02:20:20;;;;;;;28.75;26.65;;;20.10;99.90;;;;;;5096301;28;20093;-70
2023/06/20 02:22:48;;;;;;;29.38;27.17;;;20.10;99.90;;;;;;5085716;28;20442;-69
2023/06/20 02:25:21;;;;;;;28.50;26.27;;;19.90;99.90;;;;;;5076115;28;20135;-69
2023/06/20 02:27:51;;;;;;;27.47;25.47;;;19.90;99.90;;;;;;5077818;28;20047;-69
2023/06/20 02:30:20;;;;;;;28.08;26.08;;;19.90;99.90;;;;;;5067640;28;20525;-71
2023/06/20 02:32:49;;;;;;;28.65;26.45;;;20.00;99.90;;;;;;5089773;28;20629;-70
2023/06/20 02:35:19;;;;;;;28.65;26.35;;;19.90;99.90;;;;;;5076759;28;20109;-68
2023/06/20 02:37:48;;;;;;;27.45;25.25;;;20.00;99.90;;;;;;5059741;28;20047;-71
2023/06/20 02:40:14;;;;;;;28.73;26.52;;;20.00;99.90;;;;;;5066227;28;20055;-71
2023/06/20 02:42:41;;;;;;;28.20;26.20;;;19.90;99.90;;;;;;5061447;28;20043;-68
2023/06/20 02:45:11;;;;;;;27.40;25.38;;;20.00;99.90;;;;;;5053762;28;20134;-70
2023/06/20 02:48:01;;;;;;;28.15;26.02;;;20.10;99.90;;;;;;5066564;28;20060;-70
2023/06/20 02:50:43;;;;;;;28.73;26.58;;;20.00;99.90;;;;;;5085636;28;22550;-71
2023/06/20 02:53:22;;;;;;;29.80;27.50;;;19.90;99.90;;;;;;5087846;28;20052;-69
2023/06/20 02:55:51;;;;;;;32.03;29.63;;;19.90;99.90;;;;;;5074141;28;20055;-71
2023/06/20 02:58:22;;;;;;;28.50;26.40;;;19.90;99.90;;;;;;5070825;28;20108;-70
2023/06/20 03:00:52;;;;;;;28.83;26.55;;;19.70;99.90;;;;;;5075493;28;20060;-70
2023/06/20 03:03:24;;;;;;;29.27;27.15;;;19.70;99.90;;;;;;5068433;28;20059;-70
2023/06/20 03:05:56;;;;;;;29.50;27.23;;;19.70;99.90;;;;;;5091624;28;20138;-69
2023/06/20 03:08:26;;;;;;;29.77;27.67;;;19.80;99.90;;;;;;5046817;28;20051;-70
2023/06/20 03:10:55;;;;;;;29.35;26.90;;;19.80;99.90;;;;;;5059232;28;20065;-70
2023/06/20 03:13:22;;;;;;;28.98;26.90;;;19.70;99.90;;;;;;5067143;28;20036;-69
2023/06/20 03:15:51;;;;;;;27.55;25.63;;;19.70;99.90;;;;;;5057849;28;20054;-71
2023/06/20 03:18:19;;;;;;;28.25;26.08;;;19.70;99.90;;;;;;5068295;28;20036;-70
2023/06/20 03:20:48;;;;;;;27.20;25.23;;;19.70;99.90;;;;;;5059302;28;20698;-70
2023/06/20 03:23:16;;;;;;;27.30;25.20;;;19.70;99.90;;;;;;5068498;28;20520;-70
2023/06/20 03:25:43;;;;;;;28.83;26.70;;;19.80;99.90;;;;;;5067429;28;21878;-70
2023/06/20 03:28:11;;;;;;;30.02;27.73;;;19.90;99.90;;;;;;5068958;28;20047;-69
2023/06/20 03:30:40;;;;;;;31.38;28.80;;;19.90;99.90;;;;;;5080637;28;20589;-70
2023/06/20 03:33:08;;;;;;;31.55;29.05;;;19.90;99.90;;;;;;5071313;28;20039;-71
2023/06/20 03:35:35;;;;;;;31.83;29.10;;;19.80;99.90;;;;;;5068028;28;20155;-71
2023/06/20 03:38:02;;;;;;;36.97;34.28;;;19.70;99.90;;;;;;5074037;28;20048;-73
2023/06/20 03:40:29;;;;;;;30.38;27.98;;;19.60;99.90;;;;;;5065168;28;20064;-72
2023/06/20 03:42:56;;;;;;;29.65;27.45;;;19.30;99.90;;;;;;5071323;28;20732;-72
2023/06/20 03:45:23;;;;;;;27.65;25.45;;;19.00;99.90;;;;;;5068293;28;20040;-72
2023/06/20 03:47:51;;;;;;;26.23;24.13;;;18.80;99.90;;;;;;5072386;28;20590;-72
2023/06/20 03:50:19;;;;;;;26.35;24.15;;;18.50;99.90;;;;;;5050865;28;20037;-72
2023/06/20 03:52:46;;;;;;;25.27;23.08;;;18.40;99.90;;;;;;5069747;28;20131;-72
2023/06/20 03:55:14;;;;;;;24.83;22.77;;;18.30;99.90;;;;;;5073857;28;20089;-72
2023/06/20 03:57:41;;;;;;;24.63;22.73;;;18.20;99.90;;;;;;5073570;28;20770;-72
2023/06/20 04:00:11;;;;;;;25.92;24.00;;;18.20;99.90;;;;;;5065017;28;20610;-72
2023/06/20 04:02:41;;;;;;;27.73;25.48;;;18.10;99.90;;;;;;5070030;28;20670;-72
2023/06/20 04:05:09;;;;;;;27.17;24.77;;;18.10;99.90;;;;;;5063837;28;20071;-72
2023/06/20 04:07:42;;;;;;;29.10;26.60;;;18.20;99.90;;;;;;5070121;28;20747;-72
2023/06/20 04:10:11;;;;;;;27.20;24.73;;;18.40;99.90;;;;;;5071880;28;20051;-71
2023/06/20 04:12:42;;;;;;;28.48;26.08;;;18.40;99.90;;;;;;5066562;28;20043;-71
2023/06/20 04:15:10;;;;;;;27.70;25.25;;;18.30;99.90;;;;;;5070621;28;20040;-72
2023/06/20 04:17:39;;;;;;;26.52;24.33;;;18.20;99.90;;;;;;5065251;28;20036;-72
2023/06/20 04:20:12;;;;;;;28.55;25.95;;;18.30;99.90;;;;;;5066737;28;20075;-72
2023/06/20 04:22:44;;;;;;;27.42;25.02;;;18.30;99.90;;;;;;5068989;28;20050;-72
2023/06/20 04:25:13;;;;;;;28.30;25.67;;;18.40;99.90;;;;;;5055159;28;20063;-72
2023/06/20 04:27:42;;;;;;;30.15;27.25;;;18.40;99.90;;;;;;5070580;28;20043;-71
2023/06/20 04:30:10;;;;;;;27.05;24.65;;;18.50;99.90;;;;;;5053752;28;20579;-72
2023/06/20 04:32:39;;;;;;;26.98;24.65;;;18.60;99.90;;;;;;5051761;28;20120;-71
2023/06/20 04:35:10;;;;;;;24.40;22.25;;;18.40;99.90;;;;;;5074473;28;20093;-71
2023/06/20 04:37:38;;;;;;;23.65;21.77;;;18.20;99.90;;;;;;5063279;28;20067;-72
2023/06/20 04:40:08;;;;;;;23.17;21.38;;;18.10;99.90;;;;;;5068224;28;20038;-71
2023/06/20 04:42:35;;;;;;;24.05;21.90;;;18.20;99.90;;;;;;5079698;28;20485;-72
2023/06/20 04:45:02;;;;;;;23.95;22.15;;;18.20;99.90;;;;;;5057849;28;20480;-71
2023/06/20 04:47:32;;;;;;;23.42;21.45;;;18.30;99.90;;;;;;5062449;28;20578;-72
2023/06/20 04:50:03;;;;;;;21.85;20.25;;;18.30;99.90;;;;;;5053695;28;20580;-71
2023/06/20 04:52:30;;;;;;;22.45;20.55;;;18.10;99.90;;;;;;5081726;28;20039;-72
2023/06/20 04:55:04;;;;;;;21.70;19.95;;;18.00;99.90;;;;;;5082988;28;20035;-71
2023/06/20 04:57:31;;;;;;;23.27;21.38;;;18.00;99.90;;;;;;5070257;28;20711;-72
2023/06/20 04:59:58;;;;;;;22.67;20.67;;;17.90;99.90;;;;;;5072056;28;20059;-71
2023/06/20 05:02:26;;;;;;;21.73;19.95;;;17.90;99.90;;;;;;5066224;28;20044;-71
2023/06/20 05:04:53;;;;;;;21.67;19.77;;;17.80;99.90;;;;;;5072700;28;20043;-72
2023/06/20 05:07:21;;;;;;;22.33;20.13;;;17.80;99.90;;;;;;5051435;28;20114;-71
2023/06/20 05:09:49;;;;;;;21.80;19.70;;;17.90;99.90;;;;;;5067366;28;20055;-71
2023/06/20 05:12:16;;;;;;;22.08;20.08;;;18.00;99.90;;;;;;5071308;28;20044;-71
2023/06/20 05:14:43;;;;;;;22.20;20.23;;;18.10;99.90;;;;;;5069550;28;20043;-72
2023/06/20 05:17:10;;;;;;;21.45;19.52;;;18.10;99.90;;;;;;5085438;28;20043;-71
2023/06/20 05:19:37;;;;;;;22.30;20.17;;;18.20;99.90;;;;;;5065629;28;20562;-70
2023/06/20 05:22:03;;;;;;;21.33;19.42;;;18.20;99.90;;;;;;5083075;28;20055;-71
2023/06/20 05:24:30;;;;;;;22.33;20.23;;;18.20;99.90;;;;;;5083337;28;20039;-71
2023/06/20 05:26:57;;;;;;;21.70;19.60;;;18.30;99.90;;;;;;5083523;28;20039;-71
2023/06/20 05:29:24;;;;;;;20.88;18.88;;;18.40;99.90;;;;;;5079088;28;20152;-71
2023/06/20 05:31:51;;;;;;;20.95;19.00;;;18.30;99.90;;;;;;5069857;28;20754;-71
2023/06/20 05:34:18;;;;;;;21.83;19.77;;;18.40;99.90;;;;;;5063404;28;20064;-71
2023/06/20 05:36:47;;;;;;;20.75;18.98;;;18.40;99.90;;;;;;5082290;28;20126;-71
2023/06/20 05:39:14;;;;;;;20.13;18.30;;;18.40;99.90;;;;;;5077442;28;20043;-71
2023/06/20 05:41:43;;;;;;;21.10;19.17;;;18.40;99.90;;;;;;5067144;28;20082;-71
2023/06/20 05:44:10;;;;;;;20.95;18.98;;;18.40;99.90;;;;;;5073826;28;20052;-72
2023/06/20 05:46:37;;;;;;;21.50;19.60;;;18.40;99.90;;;;;;5060306;28;20036;-72
2023/06/20 05:49:04;;;;;;;22.20;20.10;;;18.50;99.90;;;;;;5083643;28;20119;-71
2023/06/20 05:51:31;;;;;;;22.08;20.17;;;18.50;99.90;;;;;;5068071;28;20040;-70
2023/06/20 05:53:58;;;;;;;21.98;19.98;;;18.50;99.90;;;;;;5056793;28;20039;-71
2023/06/20 05:56:25;;;;;;;21.02;19.17;;;18.40;99.90;;;;;;5080076;28;20070;-71
2023/06/20 05:58:52;;;;;;;22.42;20.52;;;18.50;99.90;;;;;;5071496;28;20117;-71
2023/06/20 06:01:19;;;;;;;22.13;20.17;;;18.50;99.90;;;;;;5087043;28;20134;-71
2023/06/20 06:03:47;;;;;;;24.23;22.13;;;18.50;99.90;;;;;;5068271;28;20105;-72
2023/06/20 06:06:15;;;;;;;23.67;21.48;;;18.40;99.90;;;;;;5066633;28;20040;-71
2023/06/20 06:08:41;;;;;;;23.77;21.73;;;18.40;99.90;;;;;;5047645;28;20049;-72
2023/06/20 06:11:09;;;;;;;22.17;20.27;;;18.50;99.90;;;;;;5086098;28;20040;-70
2023/06/20 06:13:38;;;;;;;24.48;22.23;;;18.50;99.90;;;;;;5058680;28;20123;-71
2023/06/20 06:16:05;;;;;;;23.95;21.90;;;18.50;99.90;;;;;;5084928;28;20091;-71
2023/06/20 06:18:32;;;;;;;22.98;20.83;;;18.50;99.90;;;;;;5066660;28;20036;-72
2023/06/20 06:20:59;;;;;;;23.33;21.17;;;18.40;99.90;;;;;;5052384;28;20046;-72
2023/06/20 06:23:26;;;;;;;23.23;21.00;;;18.40;99.90;;;;;;5063385;28;20897;-72
2023/06/20 06:25:53;;;;;;;25.15;22.80;;;18.40;99.90;;;;;;5069683;28;20052;-72
2023/06/20 06:28:21;;;;;;;23.95;21.65;;;18.40;99.90;;;;;;5091409;28;20046;-69
2023/06/20 06:30:48;;;;;;;22.85;20.75;;;18.50;99.90;;;;;;5068383;28;20047;-69
2023/06/20 06:33:15;;;;;;;22.60;20.50;;;18.40;99.90;;;;;;5091182;28;20474;-73
2023/06/20 06:35:42;;;;;;;23.75;21.73;;;18.50;99.90;;;;;;5070165;28;20047;-71
2023/06/20 06:38:09;;;;;;;24.10;21.90;;;18.50;99.90;;;;;;5071999;28;20062;-70
2023/06/20 06:40:36;;;;;;;22.70;20.50;;;18.60;99.90;;;;;;5082127;28;20040;-71
2023/06/20 06:43:03;;;;;;;25.52;23.13;;;18.60;99.90;;;;;;5081731;28;20105;-72
2023/06/20 06:45:30;;;;;;;25.17;22.77;;;18.60;99.90;;;;;;5064480;28;20109;-71
2023/06/20 06:47:57;;;;;;;24.85;22.58;;;18.60;99.90;;;;;;5085100;28;20742;-71
2023/06/20 06:50:24;;;;;;;24.70;22.50;;;18.60;99.90;;;;;;5087111;28;20039;-69
2023/06/20 06:52:51;;;;;;;24.20;22.10;;;18.70;99.90;;;;;;5086472;28;20048;-72
2023/06/20 06:55:17;;;;;;;27.17;24.65;;;18.80;99.90;;;;;;5085241;28;20044;-71
2023/06/20 06:57:44;;;;;;;25.50;23.30;;;18.80;99.90;;;;;;5051046;28;20043;-72
2023/06/20 07:00:14;;;;;;;25.38;23.17;;;18.90;99.90;;;;;;5058198;28;20119;-71
2023/06/20 07:02:43;;;;;;;25.90;23.65;;;18.80;99.90;;;;;;5069821;28;20047;-72
2023/06/20 07:05:10;;;;;;;26.00;23.60;;;18.80;99.90;;;;;;5087972;28;20063;-72
2023/06/20 07:07:37;;;;;;;24.88;22.60;;;18.90;99.90;;;;;;5070623;28;20839;-72
2023/06/20 07:10:05;;;;;;;25.27;22.98;;;19.00;99.90;;;;;;5085643;28;20101;-72
2023/06/20 07:12:31;;;;;;;25.02;22.83;;;19.00;99.90;;;;;;5072089;28;20032;-71
2023/06/20 07:14:58;;;;;;;26.95;23.35;;;19.00;99.90;;;;;;5089858;28;20040;-71
2023/06/20 07:17:25;;;;;;;24.60;22.50;;;19.20;99.90;;;;;;5073567;28;20063;-71
2023/06/20 07:19:53;;;;;;;25.13;22.92;;;19.20;99.90;;;;;;5086936;28;20028;-70
2023/06/20 07:22:20;;;;;;;26.33;23.85;;;19.20;99.90;;;;;;5074143;28;20421;-70
2023/06/20 07:24:48;;;;;;;25.40;23.02;;;19.40;99.90;;;;;;5062872;28;20056;-71
2023/06/20 07:27:20;;;;;;;24.02;22.00;;;19.40;99.90;;;;;;5087456;28;20505;-70
2023/06/20 07:29:46;;;;;;;25.05;22.95;;;19.60;99.90;;;;;;5081000;28;20101;-71
2023/06/20 07:32:14;;;;;;;24.50;22.33;;;19.80;99.90;;;;;;5088284;28;20066;-71
2023/06/20 07:34:41;;;;;;;25.27;23.13;;;20.20;99.90;;;;;;5068871;28;20040;-71
2023/06/20 07:37:08;;;;;;;27.48;25.17;;;20.30;99.90;;;;;;5061383;28;20638;-71
2023/06/20 07:39:42;;;;;;;25.52;23.60;;;20.40;99.90;;;;;;5090062;28;20048;-71
2023/06/20 07:42:10;;;;;;;26.98;24.85;;;20.80;99.90;;;;;;5089807;28;20104;-71
2023/06/20 07:44:36;;;;;;;27.83;25.48;;;21.10;99.90;;;;;;5086851;28;20052;-69
2023/06/20 07:47:03;;;;;;;28.45;26.25;;;21.10;99.90;;;;;;5070718;28;20047;-70
2023/06/20 07:49:30;;;;;;;27.88;25.77;;;21.10;99.90;;;;;;5066756;28;20044;-70
2023/06/20 07:51:57;;;;;;;28.20;26.20;;;21.20;99.90;;;;;;5081687;28;20031;-69
2023/06/20 07:54:25;;;;;;;28.58;26.35;;;21.10;99.90;;;;;;5080887;28;20595;-70
2023/06/20 07:56:52;;;;;;;27.90;25.88;;;21.00;99.90;;;;;;5082707;28;20051;-71
2023/06/20 07:59:19;;;;;;;28.33;26.17;;;21.10;99.90;;;;;;5072492;28;20068;-69
2023/06/20 08:01:46;;;;;;;28.33;26.38;;;21.50;99.90;;;;;;5066659;28;20047;-70
2023/06/20 08:04:13;;;;;;;28.55;26.35;;;21.50;99.90;;;;;;5086938;28;20035;-71
2023/06/20 08:06:39;;;;;;;29.70;27.45;;;21.70;99.90;;;;;;5065825;28;20664;-71
2023/06/20 08:09:06;;;;;;;29.58;27.30;;;22.10;99.90;;;;;;5090703;28;20051;-71
2023/06/20 08:11:34;;;;;;;30.02;27.73;;;22.50;99.90;;;;;;5081486;28;20051;-71
2023/06/20 08:14:01;;;;;;;31.30;29.10;;;22.70;99.90;;;;;;5084659;28;20052;-69
2023/06/20 08:16:28;;;;;;;30.38;28.17;;;23.00;99.90;;;;;;5081786;28;20424;-70
2023/06/20 08:18:55;;;;;;;31.50;29.05;;;22.90;99.90;;;;;;5068501;28;20032;-71
2023/06/20 08:21:21;;;;;;;29.70;27.55;;;22.30;99.90;;;;;;5061955;28;20669;-71
2023/06/20 08:23:48;;;;;;;29.70;27.30;;;22.00;99.90;;;;;;5082070;28;20076;-71
2023/06/20 08:26:15;;;;;;;29.38;27.23;;;22.00;99.90;;;;;;5081668;28;20068;-69
2023/06/20 08:28:41;;;;;;;30.02;27.80;;;22.30;99.90;;;;;;5082184;28;20051;-69
2023/06/20 08:31:08;;;;;;;31.05;28.77;;;22.70;99.90;;;;;;5086778;28;20622;-71
2023/06/20 08:33:35;;;;;;;31.70;29.40;;;23.00;99.90;;;;;;5064720;28;20678;-70
2023/06/20 08:36:02;;;;;;;30.90;28.80;;;23.10;99.90;;;;;;5065475;28;21364;-68
2023/06/20 08:38:29;;;;;;;30.77;28.50;;;23.20;99.90;;;;;;5086153;28;20088;-67
2023/06/20 08:40:56;;;;;;;31.02;28.83;;;23.30;99.90;;;;;;5082921;28;20094;-69
2023/06/20 08:43:22;;;;;;;29.60;27.55;;;22.90;99.90;;;;;;5086256;28;20505;-69
2023/06/20 08:45:55;;;;;;;30.63;28.23;;;22.90;99.90;;;;;;5062192;28;20146;-70
2023/06/20 08:48:23;;;;;;;30.10;28.00;;;22.70;99.90;;;;;;5073290;28;20468;-69
2023/06/20 08:50:51;;;;;;;31.02;28.92;;;22.60;99.90;;;;;;5081872;28;20043;-70
2023/06/20 08:53:19;;;;;;;30.30;28.20;;;22.80;99.90;;;;;;5073711;28;20651;-69
2023/06/20 08:55:52;;;;;;;30.20;27.80;;;22.90;99.90;;;;;;5065924;28;20051;-69
2023/06/20 08:58:21;;;;;;;29.38;27.33;;;23.00;99.90;;;;;;5089419;28;20420;-69
2023/06/20 09:00:48;;;;;;;31.42;28.85;;;22.90;99.90;;;;;;5060599;28;20067;-69
2023/06/20 09:03:16;;;;;;;32.17;29.98;;;22.90;99.90;;;;;;5070611;28;20078;-68
2023/06/20 09:05:45;;;;;;;31.40;29.05;;;22.80;99.90;;;;;;5075695;28;20036;-68
2023/06/20 09:08:14;;;;;;;32.10;29.65;;;23.10;99.90;;;;;;5084734;28;20717;-70
2023/06/20 09:10:41;;;;;;;31.35;29.05;;;23.40;99.90;;;;;;5083173;28;20126;-70
2023/06/20 09:13:11;;;;;;;31.88;29.77;;;23.30;99.90;;;;;;5074698;28;20039;-70
2023/06/20 09:15:38;;;;;;;32.47;30.27;;;23.60;99.90;;;;;;5083708;28;20032;-70
2023/06/20 09:18:08;;;;;;;32.03;29.83;;;23.40;99.90;;;;;;5069329;28;20051;-67
2023/06/20 09:20:35;;;;;;;31.42;29.23;;;23.50;99.90;;;;;;5084519;28;20032;-70
2023/06/20 09:23:02;;;;;;;32.08;29.65;;;23.90;99.90;;;;;;5086946;28;20583;-70
2023/06/20 09:25:30;;;;;;;31.77;29.55;;;23.70;99.90;;;;;;5073512;28;20075;-69
2023/06/20 09:27:57;;;;;;;30.45;28.15;;;23.70;99.90;;;;;;5087389;28;20047;-70
2023/06/20 09:30:30;;;;;;;30.88;28.73;;;23.40;99.90;;;;;;5070028;28;20051;-69
2023/06/20 09:33:04;;;;;;;32.05;29.65;;;23.40;99.90;;;;;;5068739;28;20299;-69
2023/06/20 09:35:32;;;;;;;31.00;28.80;;;23.50;99.90;;;;;;5085602;28;20700;-70
2023/06/20 09:38:03;;;;;;;32.45;30.10;;;23.30;99.90;;;;;;5082322;28;20112;-69
2023/06/20 09:40:31;;;;;;;32.42;29.92;;;23.40;99.90;;;;;;5083469;28;20105;-69
2023/06/20 09:42:58;;;;;;;30.33;27.88;;;23.00;99.90;;;;;;5086087;28;20116;-68
2023/06/20 09:45:25;;;;;;;32.17;29.83;;;23.00;99.90;;;;;;5087765;28;20039;-68
2023/06/20 09:47:54;;;;;;;31.15;28.90;;;23.20;99.90;;;;;;5082252;28;20050;-69
2023/06/20 09:50:23;;;;;;;29.80;27.55;;;23.40;99.90;;;;;;5082850;28;20131;-68
2023/06/20 09:53:12;;;;;;;30.58;28.25;;;23.10;99.90;;;;;;5082602;28;20051;-70
2023/06/20 09:55:40;;;;;;;31.48;28.98;;;23.00;99.90;;;;;;5083836;28;20036;-71
2023/06/20 09:58:07;;;;;;;29.98;27.88;;;22.90;99.90;;;;;;5084018;28;20525;-72
2023/06/20 10:00:36;;;;;;;32.17;29.70;;;22.80;99.90;;;;;;5083989;28;20580;-71
2023/06/20 10:03:10;;;;;;;31.95;29.50;;;23.20;99.90;;;;;;5052176;28;20089;-71
2023/06/20 10:05:38;;;;;;;;;;;23.60;99.90;;;;;;5064531;28;20040;-68
2023/06/20 10:08:06;;;;;;;31.48;29.15;;;23.80;99.90;;;;;;5072673;28;19945;-71
2023/06/20 10:10:33;;;;;;;32.55;30.05;;;23.70;99.90;;;;;;5072963;28;20040;-71
2023/06/20 10:13:00;;;;;;;33.60;31.00;;;23.90;99.90;;;;;;5078907;28;20040;-69
2023/06/20 10:15:27;;;;;;;31.73;29.42;;;23.90;99.90;;;;;;5073135;28;20047;-71
2023/06/20 10:17:53;;;;;;;32.28;29.88;;;23.90;99.90;;;;;;5066562;28;20085;-71
2023/06/20 10:20:37;;;;;;;31.77;29.48;;;23.60;99.90;;;;;;5086951;28;20180;-70
2023/06/20 10:23:07;;;;;;;32.35;29.95;;;23.70;99.90;;;;;;5063355;28;20036;-70
2023/06/20 10:25:35;;;;;;;33.40;30.73;;;23.70;99.90;;;;;;5088967;28;20070;-68
2023/06/20 10:28:09;;;;;;;32.42;29.48;;;23.80;99.90;;;;;;5087744;28;20072;-70
2023/06/20 10:30:55;;;;;;;31.08;28.88;;;23.80;99.90;;;;;;5089667;28;20092;-69
2023/06/20 10:33:26;;;;;;;29.98;27.48;;;23.70;99.90;;;;;;5078052;28;20135;-69
2023/06/20 10:36:07;;;;;;;28.77;26.65;;;23.30;99.90;;;;;;5071827;28;20131;-69
2023/06/20 10:38:37;;;;;;;30.95;28.65;;;23.20;99.90;;;;;;5075913;28;20040;-69
2023/06/20 10:41:23;;;;;;;30.63;28.52;;;23.20;99.90;;;;;;5084191;28;20031;-68
2023/06/20 10:44:00;;;;;;;30.20;27.88;;;23.50;99.90;;;;;;5110819;28;20081;-69
2023/06/20 10:46:43;;;;;;;30.63;28.48;;;23.80;99.90;;;;;;5107858;28;20047;-71
2023/06/20 10:49:10;;;;;;;30.05;27.98;;;23.90;99.90;;;;;;5093140;28;20071;-69
2023/06/20 10:51:44;;;;;;;30.38;28.35;;;23.90;99.90;;;;;;5086778;28;20113;-70
2023/06/20 10:54:12;;;;;;;29.90;27.90;;;24.10;99.90;;;;;;5087001;27;20047;-69
2023/06/20 10:56:39;;;;;;;29.65;27.48;;;23.80;99.90;;;;;;5068690;28;20044;-69
2023/06/20 10:59:14;;;;;;;29.20;27.15;;;24.00;99.90;;;;;;5082600;28;20024;-68
2023/06/20 11:01:42;;;;;;;29.92;27.92;;;24.50;99.90;;;;;;5088205;28;20039;-68
2023/06/20 11:04:14;;;;;;;29.40;27.08;;;24.60;99.90;;;;;;5071521;28;20075;-70
2023/06/20 11:06:41;;;;;;;29.80;27.70;;;24.80;99.90;;;;;;5086037;28;20040;-70
2023/06/20 11:09:25;;;;;;;30.02;27.83;;;25.00;99.90;;;;;;5065683;28;20073;-70
2023/06/20 11:11:52;;;;;;;29.13;27.02;;;24.90;99.90;;;;;;5085936;28;20048;-70
2023/06/20 11:14:23;;;;;;;29.73;27.63;;;25.10;99.90;;;;;;5084373;28;20109;-71
2023/06/20 11:16:51;;;;;;;29.50;27.52;;;25.10;99.90;;;;;;5069589;28;20040;-69
2023/06/20 11:19:22;;;;;;;29.88;27.88;;;25.50;99.90;;;;;;5085762;28;20490;-70
2023/06/20 11:21:52;;;;;;;30.50;28.40;;;25.80;99.90;;;;;;5085711;28;20117;-69
2023/06/20 11:24:22;;;;;;;30.40;28.30;;;26.00;99.90;;;;;;5076647;28;20665;-71
2023/06/20 11:26:49;;;;;;;30.80;28.83;;;26.20;99.90;;;;;;5067285;28;20213;-71
2023/06/20 11:29:16;;;;;;;28.45;26.63;;;26.10;99.90;;;;;;5070988;28;20097;-70
2023/06/20 11:31:43;;;;;;;31.08;28.98;;;26.20;99.90;;;;;;5082443;28;20135;-70
2023/06/20 11:34:12;;;;;;;32.75;30.55;;;26.00;99.90;;;;;;5084880;28;20139;-70
2023/06/20 11:36:40;;;;;;;31.10;28.90;;;26.10;99.90;;;;;;5073775;28;20050;-70
2023/06/20 11:39:11;;;;;;;31.88;28.67;;;26.00;99.90;;;;;;5071153;28;20044;-71
2023/06/20 11:41:38;;;;;;;32.72;30.48;;;26.30;99.90;;;;;;5069683;28;20044;-70
2023/06/20 11:44:20;;;;;;;31.73;29.58;;;26.60;99.90;;;;;;5084842;28;20036;-70
2023/06/20 11:46:47;;;;;;;32.42;30.15;;;26.70;99.90;;;;;;5066955;28;20074;-70
2023/06/20 11:49:13;;;;;;;31.05;28.75;;;27.00;99.90;;;;;;5068330;28;20079;-70
2023/06/20 11:51:40;;;;;;;30.08;27.98;;;27.10;99.90;;;;;;5071391;28;20134;-73
2023/06/20 11:54:12;;;;;;;30.13;28.15;;;26.80;99.90;;;;;;5070290;28;20093;-69
2023/06/20 11:56:39;;;;;;;33.42;31.02;;;26.40;99.90;;;;;;5093457;28;20112;-70
2023/06/20 11:59:06;;;;;;;31.30;29.15;;;26.30;99.90;;;;;;5070123;28;20044;-70
2023/06/20 12:01:33;;;;;;;32.33;30.23;;;26.40;99.90;;;;;;5084689;28;20525;-69
2023/06/20 12:04:09;;;;;;;32.17;29.88;;;26.90;99.90;;;;;;5069653;28;20039;-69
2023/06/20 12:06:38;;;;;;;32.75;30.55;;;27.20;99.90;;;;;;5086832;28;20694;-69
2023/06/20 12:09:15;;;;;;;33.17;30.88;;;27.20;99.90;;;;;;5070658;28;20047;-69
2023/06/20 12:11:49;;;;;;;32.97;30.77;;;27.10;99.90;;;;;;5086622;28;20072;-69
2023/06/20 12:14:17;;;;;;;32.90;30.50;;;27.50;99.90;;;;;;5071109;28;20093;-70
2023/06/20 12:16:44;;;;;;;31.63;29.42;;;27.60;99.90;;;;;;5084699;28;20140;-69
2023/06/20 12:19:11;;;;;;;32.90;30.45;;;27.70;99.90;;;;;;5088194;28;20633;-69
2023/06/20 12:21:38;;;;;;;33.92;31.40;;;27.40;99.90;;;;;;5082754;28;20448;-70
2023/06/20 12:24:06;;;;;;;32.55;30.30;;;27.20;99.90;;;;;;5065498;28;21181;-69
2023/06/20 12:26:33;;;;;;;32.55;30.20;;;27.50;99.90;;;;;;5071416;28;20047;-68
2023/06/20 12:29:00;;;;;;;32.40;30.20;;;27.90;99.90;;;;;;5083412;28;20088;-69
2023/06/20 12:31:26;;;;;;;32.45;30.25;;;27.90;99.90;;;;;;5087930;28;20051;-71
2023/06/20 12:33:53;;;;;;;32.95;30.85;;;28.00;99.90;;;;;;5062413;28;20143;-68
2023/06/20 12:36:20;;;;;;;32.47;30.20;;;28.40;99.90;;;;;;5085148;28;20097;-68
2023/06/20 12:38:47;;;;;;;32.03;30.02;;;28.50;99.90;;;;;;5066438;28;20533;-69